Time;durP1;ratioP1;P1;durP2;ratioP2;P2;SDS_P1;SDS_P2;PMS_P1;PMS_P2;Temp;Humidity;BMP_temperature;BMP_pressure;BME280_temperature;BME280_humidity;BME280_pressure;Samples;Min_cycle;Max_cycle;Signal;HPM_P1;HPM_P2
2023/05/08 00:00:39;;;;;;;10.88;6.38;;;14.40;99.90;;;;;;5101058;28;20477;-35
2023/05/08 00:03:05;;;;;;;9.23;5.35;;;14.30;99.90;;;;;;5113462;28;20020;-33
2023/05/08 00:05:30;;;;;;;10.25;7.00;;;14.30;99.90;;;;;;5099458;28;20028;-37
2023/05/08 00:08:00;;;;;;;7.22;6.30;;;14.30;99.90;;;;;;5113049;28;20023;-35
2023/05/08 00:10:27;;;;;;;10.10;7.13;;;14.30;99.90;;;;;;5106261;28;20503;-37
2023/05/08 00:12:53;;;;;;;9.63;7.20;;;14.30;99.90;;;;;;5113670;28;20430;-35
2023/05/08 00:15:18;;;;;;;8.70;6.05;;;14.30;99.90;;;;;;5109747;28;20027;-37
2023/05/08 00:17:44;;;;;;;8.93;6.82;;;14.30;99.90;;;;;;5097822;28;20058;-35
2023/05/08 00:20:10;;;;;;;10.80;7.05;;;14.30;99.90;;;;;;5098938;28;20460;-37
2023/05/08 00:22:36;;;;;;;11.15;7.70;;;14.20;99.90;;;;;;5112996;28;20020;-32
2023/05/08 00:25:04;;;;;;;9.88;7.20;;;14.20;99.90;;;;;;5104657;28;20384;-35
2023/05/08 00:27:30;;;;;;;8.80;6.45;;;14.20;99.90;;;;;;5103816;28;20051;-38
2023/05/08 00:29:57;;;;;;;13.05;6.68;;;14.20;99.90;;;;;;5097254;28;20031;-35
2023/05/08 00:32:23;;;;;;;18.85;6.93;;;14.20;99.90;;;;;;5113184;28;20080;-33
2023/05/08 00:34:48;;;;;;;9.25;7.53;;;14.20;99.90;;;;;;5104338;28;20024;-36
2023/05/08 00:37:14;;;;;;;11.18;7.38;;;14.10;99.90;;;;;;5092655;28;20465;-40
2023/05/08 00:39:40;;;;;;;9.55;6.75;;;14.10;99.90;;;;;;5107962;28;20024;-33
2023/05/08 00:42:06;;;;;;;8.07;6.20;;;14.10;99.90;;;;;;5092203;28;20016;-35
2023/05/08 00:44:31;;;;;;;7.88;6.22;;;14.10;99.90;;;;;;5092623;28;20020;-35
2023/05/08 00:46:57;;;;;;;10.50;7.80;;;14.10;99.90;;;;;;5093732;28;20061;-34
2023/05/08 00:49:24;;;;;;;9.73;7.55;;;14.00;99.90;;;;;;5096684;28;20407;-34
2023/05/08 00:51:53;;;;;;;9.77;6.95;;;14.00;99.90;;;;;;5096698;28;20084;-49
2023/05/08 00:54:19;;;;;;;11.60;8.52;;;14.00;99.90;;;;;;5109354;28;20028;-38
2023/05/08 00:56:47;;;;;;;12.00;7.45;;;14.00;99.90;;;;;;5115431;28;20106;-35
2023/05/08 00:59:15;;;;;;;8.95;6.72;;;14.00;99.90;;;;;;5115249;28;20509;-37
2023/05/08 01:01:42;;;;;;;9.50;7.50;;;14.00;99.90;;;;;;5117009;28;20084;-31
2023/05/08 01:04:09;;;;;;;14.57;7.78;;;13.90;99.90;;;;;;5116378;28;20024;-40
2023/05/08 01:06:36;;;;;;;8.02;5.82;;;13.90;99.90;;;;;;5107981;28;20065;-33
2023/05/08 01:09:02;;;;;;;11.15;7.55;;;13.90;99.90;;;;;;5096073;28;20384;-37
2023/05/08 01:11:57;;;;;;;13.07;8.07;;;13.90;99.90;;;;;;5108229;28;20500;-33
2023/05/08 01:15:03;;;;;;;12.25;8.40;;;13.90;99.90;;;;;;5106557;28;20039;-32
2023/05/08 01:17:46;;;;;;;11.85;5.95;;;13.90;99.90;;;;;;5092692;28;20122;-38
2023/05/08 01:20:35;;;;;;;10.73;8.10;;;13.90;99.90;;;;;;5094870;28;20028;-36
2023/05/08 01:23:49;;;;;;;9.45;7.38;;;13.80;99.90;;;;;;5099652;28;20535;-36
2023/05/08 01:26:26;;;;;;;10.88;7.82;;;13.80;99.90;;;;;;5093527;28;20020;-37
2023/05/08 01:29:33;;;;;;;10.07;8.18;;;13.80;99.90;;;;;;5097101;28;20426;-35
2023/05/08 01:32:22;;;;;;;9.38;6.68;;;13.70;99.90;;;;;;5091326;28;20039;-32
2023/05/08 01:35:19;;;;;;;11.43;7.72;;;13.70;99.90;;;;;;5095574;28;20511;-42
2023/05/08 01:38:03;;;;;;;;;;;13.70;99.90;;;;;;5096419;28;20040;-34
2023/05/08 01:40:53;;;;;;;9.85;6.85;;;13.70;99.90;;;;;;5097327;28;19945;-38
2023/05/08 01:43:29;;;;;;;14.90;7.93;;;13.70;99.90;;;;;;5095932;28;20475;-35
2023/05/08 01:45:58;;;;;;;10.30;7.13;;;13.60;99.90;;;;;;5114064;28;20472;-35
2023/05/08 01:48:37;;;;;;;10.85;7.88;;;13.60;99.90;;;;;;5111294;28;20020;-35
2023/05/08 01:51:18;;;;;;;10.30;7.90;;;13.60;99.90;;;;;;5112215;28;20031;-34
2023/05/08 01:53:48;;;;;;;12.75;8.32;;;13.60;99.90;;;;;;5114692;28;20046;-34
2023/05/08 01:56:17;;;;;;;11.20;8.27;;;13.60;99.90;;;;;;5114801;28;20570;-37
2023/05/08 01:58:44;;;;;;;11.45;7.90;;;13.60;99.90;;;;;;5113829;27;20038;-35
2023/05/08 02:01:12;;;;;;;10.57;7.40;;;13.60;99.90;;;;;;5113297;28;20064;-37
2023/05/08 02:03:40;;;;;;;13.65;7.53;;;13.60;99.90;;;;;;5108632;28;20109;-40
2023/05/08 02:06:08;;;;;;;9.55;7.00;;;13.60;99.90;;;;;;5100025;28;20365;-31
2023/05/08 02:08:34;;;;;;;9.75;6.85;;;13.60;99.90;;;;;;5114597;28;20023;-37
2023/05/08 02:11:01;;;;;;;7.93;5.80;;;13.60;99.90;;;;;;5104524;28;20498;-35
2023/05/08 02:13:29;;;;;;;10.48;7.45;;;13.50;99.90;;;;;;5115539;28;20487;-33
2023/05/08 02:15:57;;;;;;;9.80;7.13;;;13.50;99.90;;;;;;5113402;28;20547;-34
2023/05/08 02:18:24;;;;;;;12.38;7.95;;;13.50;99.90;;;;;;5115355;28;20111;-39
2023/05/08 02:20:51;;;;;;;;;;;13.50;99.90;;;;;;5096098;28;20024;-32
2023/05/08 02:23:19;;;;;;;11.82;7.68;;;13.50;99.90;;;;;;5094996;28;19933;-32
2023/05/08 02:25:47;;;;;;;9.52;7.43;;;13.50;99.90;;;;;;5109906;28;20058;-33
2023/05/08 02:28:14;;;;;;;10.30;7.60;;;13.40;99.90;;;;;;5114031;28;20039;-34
2023/05/08 02:30:41;;;;;;;;;;;13.50;99.90;;;;;;5113779;27;20079;-34
2023/05/08 02:33:08;;;;;;;13.07;7.35;;;13.40;99.90;;;;;;5115125;27;19915;-30
2023/05/08 02:35:35;;;;;;;7.22;5.30;;;13.30;99.90;;;;;;5100283;28;20503;-33
2023/05/08 02:38:02;;;;;;;10.00;6.93;;;13.30;99.90;;;;;;5094581;28;20488;-34
2023/05/08 02:40:29;;;;;;;12.10;8.40;;;13.30;99.90;;;;;;5107872;28;20484;-33
2023/05/08 02:42:55;;;;;;;10.73;7.05;;;13.30;99.90;;;;;;5114973;28;20472;-32
2023/05/08 02:45:25;;;;;;;12.07;7.45;;;13.30;99.90;;;;;;5112697;28;20020;-32
2023/05/08 02:48:10;;;;;;;10.35;7.43;;;13.30;99.90;;;;;;5103832;28;20024;-34
2023/05/08 02:50:54;;;;;;;15.60;8.20;;;13.30;99.90;;;;;;5110414;28;20027;-33
2023/05/08 02:53:31;;;;;;;11.02;7.72;;;13.30;99.90;;;;;;5114794;28;20027;-35
2023/05/08 02:56:15;;;;;;;9.70;6.90;;;13.30;99.90;;;;;;5112149;28;20024;-36
2023/05/08 02:58:59;;;;;;;13.82;8.57;;;13.20;99.90;;;;;;5113261;28;20400;-33
2023/05/08 03:01:32;;;;;;;8.88;6.88;;;13.20;99.90;;;;;;5093783;28;20542;-31
2023/05/08 03:04:23;;;;;;;10.07;7.13;;;13.20;99.90;;;;;;5093643;28;20031;-33
2023/05/08 03:06:50;;;;;;;11.30;6.80;;;13.20;99.90;;;;;;5104634;28;20031;-33
2023/05/08 03:09:20;;;;;;;10.88;8.10;;;13.20;99.90;;;;;;5112691;28;20508;-34
2023/05/08 03:11:48;;;;;;;20.65;8.43;;;13.20;99.90;;;;;;5112781;28;20076;-32
2023/05/08 03:14:19;;;;;;;10.38;7.28;;;13.30;99.90;;;;;;5112144;28;20384;-30
2023/05/08 03:16:49;;;;;;;12.23;7.82;;;13.20;99.90;;;;;;5113340;28;20535;-33
2023/05/08 03:19:32;;;;;;;10.05;7.55;;;13.20;99.90;;;;;;5105081;28;20031;-33
2023/05/08 03:22:00;;;;;;;13.35;7.35;;;13.20;99.90;;;;;;5094154;28;20499;-32
2023/05/08 03:24:28;;;;;;;;;;;13.20;99.90;;;;;;5097891;28;20372;-34
2023/05/08 03:26:55;;;;;;;12.30;7.10;;;13.10;99.90;;;;;;5112795;28;19908;-36
2023/05/08 03:29:23;;;;;;;8.73;6.55;;;13.10;99.90;;;;;;5111762;28;20020;-30
2023/05/08 03:31:51;;;;;;;9.85;7.70;;;13.10;99.90;;;;;;5114012;28;20400;-33
2023/05/08 03:34:18;;;;;;;;;;;13.10;99.90;;;;;;5114326;28;20020;-38
2023/05/08 03:36:44;;;;;;;11.25;7.50;;;13.00;99.90;;;;;;5096537;28;19914;-29
2023/05/08 03:39:11;;;;;;;13.73;7.28;;;13.00;99.90;;;;;;5102583;28;20537;-33
2023/05/08 03:41:36;;;;;;;11.57;7.78;;;13.00;99.90;;;;;;5112658;28;20028;-32
2023/05/08 03:44:02;;;;;;;9.40;6.60;;;13.00;99.90;;;;;;5109491;28;20480;-30
2023/05/08 03:46:30;;;;;;;12.45;7.07;;;13.00;99.90;;;;;;5113686;28;20054;-33
2023/05/08 03:48:59;;;;;;;13.15;8.07;;;13.00;99.90;;;;;;5112310;28;20486;-32
2023/05/08 03:51:26;;;;;;;9.98;7.22;;;13.10;99.90;;;;;;5097771;28;20034;-31
2023/05/08 03:53:52;;;;;;;13.40;7.65;;;13.10;99.90;;;;;;5106076;27;20040;-33
2023/05/08 03:56:18;;;;;;;11.55;8.13;;;13.00;99.90;;;;;;5093577;28;20032;-36
2023/05/08 03:59:12;;;;;;;14.02;7.63;;;13.00;99.90;;;;;;5103838;28;20109;-33
2023/05/08 04:01:42;;;;;;;14.65;7.97;;;13.00;99.90;;;;;;5094006;28;20107;-30
2023/05/08 04:04:16;;;;;;;15.77;8.20;;;12.90;99.90;;;;;;5111840;28;20027;-37
2023/05/08 04:07:16;;;;;;;16.00;8.63;;;12.90;99.90;;;;;;5103728;28;20437;-33
2023/05/08 04:10:09;;;;;;;11.07;7.38;;;12.90;99.90;;;;;;5091771;28;20028;-33
2023/05/08 04:13:20;;;;;;;13.32;7.85;;;12.90;99.90;;;;;;5102722;28;20506;-35
2023/05/08 04:16:02;;;;;;;12.15;7.68;;;12.90;99.90;;;;;;5090679;28;20040;-34
2023/05/08 04:18:29;;;;;;;9.77;7.30;;;12.90;99.90;;;;;;5110745;28;20496;-33
2023/05/08 04:20:56;;;;;;;15.10;8.50;;;12.90;99.90;;;;;;5111297;28;20019;-33
2023/05/08 04:23:23;;;;;;;20.63;8.88;;;13.00;99.90;;;;;;5109803;28;20502;-35
2023/05/08 04:25:51;;;;;;;12.38;7.68;;;12.90;99.90;;;;;;5106268;28;20404;-35
2023/05/08 04:28:17;;;;;;;;;;;12.90;99.90;;;;;;5101177;28;20515;-32
2023/05/08 04:30:43;;;;;;;11.23;6.78;;;12.90;99.90;;;;;;5093112;28;19911;-33
2023/05/08 04:33:10;;;;;;;12.35;8.02;;;12.90;99.90;;;;;;5093766;28;20036;-32
2023/05/08 04:35:36;;;;;;;12.13;8.55;;;12.90;99.90;;;;;;5109807;28;20036;-33
2023/05/08 04:38:02;;;;;;;17.02;8.65;;;12.90;99.90;;;;;;5092406;28;20118;-32
2023/05/08 04:40:27;;;;;;;10.00;7.32;;;12.90;99.90;;;;;;5092468;28;20036;-34
2023/05/08 04:42:53;;;;;;;14.60;8.45;;;12.90;99.90;;;;;;5092399;28;20020;-33
2023/05/08 04:45:19;;;;;;;15.20;8.85;;;13.00;99.90;;;;;;5095583;28;20024;-34
2023/05/08 04:47:45;;;;;;;13.38;8.60;;;13.10;99.90;;;;;;5104932;28;20049;-33
2023/05/08 04:50:11;;;;;;;12.70;8.55;;;13.10;99.90;;;;;;5103471;28;20027;-36
2023/05/08 04:52:36;;;;;;;14.13;8.13;;;13.10;99.90;;;;;;5097741;28;20500;-31
2023/05/08 04:55:02;;;;;;;11.82;8.30;;;13.20;99.90;;;;;;5110791;28;20104;-30
2023/05/08 04:57:28;;;;;;;14.27;8.57;;;13.20;99.90;;;;;;5093054;28;20020;-32
2023/05/08 04:59:54;;;;;;;16.85;8.68;;;13.20;99.90;;;;;;5091881;28;20040;-34
2023/05/08 05:02:19;;;;;;;16.15;8.98;;;13.30;99.90;;;;;;5106061;28;20376;-30
2023/05/08 05:04:45;;;;;;;12.18;7.32;;;13.30;99.90;;;;;;5103311;28;20391;-36
2023/05/08 05:07:10;;;;;;;17.50;9.18;;;13.40;99.90;;;;;;5096405;28;20028;-35
2023/05/08 05:09:37;;;;;;;30.08;9.40;;;13.40;99.90;;;;;;5098970;28;20095;-31
2023/05/08 05:12:04;;;;;;;17.67;9.40;;;13.40;99.90;;;;;;5107227;28;20383;-35
2023/05/08 05:14:30;;;;;;;14.63;9.10;;;13.40;99.90;;;;;;5110303;28;20487;-35
2023/05/08 05:16:55;;;;;;;18.75;10.18;;;13.40;99.90;;;;;;5092430;28;20050;-37
2023/05/08 05:19:21;;;;;;;22.45;9.25;;;13.50;99.90;;;;;;5103251;28;20035;-34
2023/05/08 05:21:46;;;;;;;25.50;9.75;;;13.50;99.90;;;;;;5103160;28;20099;-34
2023/05/08 05:24:12;;;;;;;26.17;10.52;;;13.50;99.90;;;;;;5091892;28;20031;-35
2023/05/08 05:26:38;;;;;;;30.50;11.05;;;13.50;99.90;;;;;;5092313;28;20024;-33
2023/05/08 05:29:03;;;;;;;21.75;11.82;;;13.50;99.90;;;;;;5092122;28;20531;-33
2023/05/08 05:31:29;;;;;;;26.80;12.07;;;13.60;99.90;;;;;;5092306;28;20032;-32
2023/05/08 05:33:55;;;;;;;17.95;10.32;;;13.60;99.90;;;;;;5094572;28;20028;-35
2023/05/08 05:36:21;;;;;;;20.60;10.10;;;13.60;99.90;;;;;;5097565;28;20084;-33
2023/05/08 05:38:47;;;;;;;24.33;10.07;;;13.70;99.90;;;;;;5115804;27;20487;-36
2023/05/08 05:41:12;;;;;;;22.30;11.02;;;13.70;99.90;;;;;;5116177;28;20034;-35
2023/05/08 05:43:38;;;;;;;19.98;10.73;;;13.70;99.90;;;;;;5115965;28;20030;-38
2023/05/08 05:46:07;;;;;;;27.42;11.98;;;13.80;99.90;;;;;;5116066;28;20051;-33
2023/05/08 05:48:33;;;;;;;27.67;13.07;;;13.80;99.90;;;;;;5116321;28;20115;-35
2023/05/08 05:50:59;;;;;;;32.92;14.07;;;13.90;99.90;;;;;;5116190;28;20056;-33
2023/05/08 05:53:25;;;;;;;39.65;14.75;;;13.90;99.90;;;;;;5115929;28;20027;-38
2023/05/08 05:55:51;;;;;;;46.28;17.45;;;13.90;99.90;;;;;;5115897;28;20016;-37
2023/05/08 05:58:17;;;;;;;41.15;16.77;;;13.90;99.90;;;;;;5115715;28;20059;-32
2023/05/08 06:00:43;;;;;;;39.55;17.05;;;14.00;99.90;;;;;;5115601;28;20074;-33
2023/05/08 06:03:12;;;;;;;42.42;17.63;;;14.10;99.90;;;;;;5114351;28;20038;-32
2023/05/08 06:05:39;;;;;;;44.13;18.48;;;14.00;99.90;;;;;;5115911;28;20494;-36
2023/05/08 06:08:05;;;;;;;42.92;17.63;;;14.10;99.90;;;;;;5115553;28;20024;-35
2023/05/08 06:10:30;;;;;;;45.05;18.15;;;14.10;99.90;;;;;;5111207;28;20070;-35
2023/05/08 06:12:56;;;;;;;36.97;16.40;;;14.10;99.90;;;;;;5095185;28;20073;-35
2023/05/08 06:15:22;;;;;;;43.42;18.60;;;14.20;99.90;;;;;;5095330;28;20016;-34
2023/05/08 06:17:48;;;;;;;50.25;20.52;;;14.20;99.90;;;;;;5094942;28;20480;-33
2023/05/08 06:20:13;;;;;;;46.17;19.55;;;14.30;99.90;;;;;;5095020;28;20061;-33
2023/05/08 06:22:40;;;;;;;52.33;20.58;;;14.30;99.90;;;;;;5094917;28;20016;-33
2023/05/08 06:25:07;;;;;;;47.15;21.17;;;14.30;99.90;;;;;;5094833;28;20035;-41
2023/05/08 06:27:33;;;;;;;47.97;20.40;;;14.40;99.90;;;;;;5095178;28;20074;-39
2023/05/08 06:29:59;;;;;;;49.67;21.80;;;14.40;99.90;;;;;;5094708;28;20035;-38
2023/05/08 06:32:25;;;;;;;42.20;19.60;;;14.40;99.90;;;;;;5094899;28;20372;-32
2023/05/08 06:34:51;;;;;;;49.90;19.02;;;14.40;99.90;;;;;;5094727;28;20024;-34
2023/05/08 06:37:17;;;;;;;47.35;20.15;;;14.50;99.90;;;;;;5094537;28;20032;-40
2023/05/08 06:39:42;;;;;;;39.58;18.05;;;14.50;99.90;;;;;;5094564;28;20384;-31
2023/05/08 06:42:08;;;;;;;48.13;19.15;;;14.60;99.90;;;;;;5094498;28;20020;-37
2023/05/08 06:44:34;;;;;;;57.20;21.60;;;14.70;99.90;;;;;;5093953;28;20055;-38
2023/05/08 06:47:00;;;;;;;47.47;20.70;;;14.80;99.90;;;;;;5093128;28;20060;-32
2023/05/08 06:49:26;;;;;;;44.05;19.70;;;14.90;99.90;;;;;;5094697;28;20515;-34
2023/05/08 06:51:51;;;;;;;46.33;20.05;;;14.90;99.90;;;;;;5094336;28;20048;-34
2023/05/08 06:54:17;;;;;;;47.60;19.45;;;14.90;99.90;;;;;;5094250;28;20115;-35
2023/05/08 06:56:43;;;;;;;39.65;17.23;;;15.00;99.90;;;;;;5094549;28;20024;-33
2023/05/08 06:59:09;;;;;;;54.65;22.02;;;15.10;99.90;;;;;;5093976;28;20090;-39
2023/05/08 07:01:36;;;;;;;53.85;20.00;;;15.20;99.90;;;;;;5094233;28;20450;-32
2023/05/08 07:04:02;;;;;;;47.80;20.57;;;15.30;99.90;;;;;;5094147;28;20039;-36
2023/05/08 07:06:27;;;;;;;43.03;19.95;;;15.40;99.90;;;;;;5094148;28;20258;-34
2023/05/08 07:08:53;;;;;;;45.65;19.55;;;15.40;99.90;;;;;;5094036;28;20031;-35
2023/05/08 07:11:19;;;;;;;48.42;21.00;;;15.50;99.90;;;;;;5093901;28;20396;-34
2023/05/08 07:13:47;;;;;;;45.00;20.65;;;15.50;99.90;;;;;;5093983;28;20024;-37
2023/05/08 07:16:14;;;;;;;55.13;23.10;;;15.50;99.90;;;;;;5094169;28;20055;-32
2023/05/08 07:18:40;;;;;;;49.22;23.27;;;15.60;99.90;;;;;;5093824;28;20453;-41
2023/05/08 07:21:05;;;;;;;50.95;22.88;;;15.60;99.90;;;;;;5093801;28;20016;-40
2023/05/08 07:23:31;;;;;;;58.78;22.95;;;15.60;99.90;;;;;;5093742;28;20023;-37
2023/05/08 07:25:57;;;;;;;53.38;22.80;;;15.60;99.90;;;;;;5093765;28;20016;-35
2023/05/08 07:28:23;;;;;;;52.33;22.73;;;15.70;99.90;;;;;;5093601;28;20024;-34
2023/05/08 07:30:49;;;;;;;61.55;22.95;;;15.70;99.90;;;;;;5093619;28;20020;-39
2023/05/08 07:33:15;;;;;;;65.00;25.15;;;15.80;99.90;;;;;;5093703;28;20032;-36
2023/05/08 07:35:41;;;;;;;68.75;26.88;;;15.90;99.90;;;;;;5093604;28;20358;-35
2023/05/08 07:38:07;;;;;;;56.53;23.98;;;15.90;99.90;;;;;;5093485;28;20050;-33
2023/05/08 07:40:33;;;;;;;51.85;24.60;;;16.00;99.90;;;;;;5093492;28;20016;-34
2023/05/08 07:42:59;;;;;;;46.33;21.10;;;15.90;99.90;;;;;;5092354;28;20024;-32
2023/05/08 07:45:24;;;;;;;44.70;20.80;;;15.90;99.90;;;;;;5093303;28;20086;-40
2023/05/08 07:47:54;;;;;;;52.80;23.77;;;15.90;99.90;;;;;;5093671;28;20044;-40
2023/05/08 07:50:20;;;;;;;64.32;27.20;;;15.90;99.90;;;;;;5091924;28;20024;-38
2023/05/08 07:52:46;;;;;;;57.17;23.83;;;15.90;99.90;;;;;;5093273;28;20020;-34
2023/05/08 07:55:12;;;;;;;50.90;22.38;;;15.90;99.90;;;;;;5092647;28;20497;-34
2023/05/08 07:57:39;;;;;;;59.90;24.63;;;15.90;99.90;;;;;;5092933;28;20490;-41
2023/05/08 08:00:06;;;;;;;57.30;23.47;;;15.90;99.90;;;;;;5093076;28;20044;-39
2023/05/08 08:02:32;;;;;;;54.35;24.60;;;16.00;99.90;;;;;;5093445;28;20453;-35
2023/05/08 08:04:57;;;;;;;53.85;23.73;;;16.00;99.90;;;;;;5093177;28;20043;-40
2023/05/08 08:07:23;;;;;;;68.93;28.15;;;16.10;99.90;;;;;;5093023;28;20103;-37
2023/05/08 08:09:49;;;;;;;62.35;25.00;;;16.10;99.90;;;;;;5093027;28;20028;-38
2023/05/08 08:12:14;;;;;;;59.55;24.85;;;16.10;99.90;;;;;;5092908;28;20028;-41
2023/05/08 08:14:40;;;;;;;58.10;25.17;;;16.00;99.90;;;;;;5093251;28;20375;-35
2023/05/08 08:17:05;;;;;;;66.07;27.33;;;16.10;99.90;;;;;;5092826;28;20065;-35
2023/05/08 08:19:31;;;;;;;59.03;26.00;;;16.20;99.90;;;;;;5092934;28;20026;-35
2023/05/08 08:21:57;;;;;;;62.28;24.52;;;16.30;99.90;;;;;;5092868;28;20051;-36
2023/05/08 08:24:23;;;;;;;58.78;25.75;;;16.40;99.90;;;;;;5092861;28;20024;-39
2023/05/08 08:26:48;;;;;;;62.90;25.58;;;16.50;99.90;;;;;;5093099;28;20028;-37
2023/05/08 08:29:14;;;;;;;64.10;25.13;;;16.60;99.90;;;;;;5092827;28;20481;-45
2023/05/08 08:31:40;;;;;;;55.05;24.55;;;16.70;99.90;;;;;;5092858;28;20426;-39
2023/05/08 08:34:05;;;;;;;62.40;25.35;;;16.80;99.90;;;;;;5092793;28;20028;-40
2023/05/08 08:36:31;;;;;;;69.93;27.83;;;16.80;99.90;;;;;;5092789;28;20586;-42
2023/05/08 08:38:57;;;;;;;73.95;28.33;;;16.90;99.90;;;;;;5092925;28;20031;-39
2023/05/08 08:41:23;;;;;;;70.40;27.17;;;16.80;99.90;;;;;;5092717;28;20419;-36
2023/05/08 08:43:49;;;;;;;73.40;29.23;;;16.90;99.90;;;;;;5092605;28;20032;-35
2023/05/08 08:46:19;;;;;;;77.47;30.02;;;16.90;99.90;;;;;;5092702;28;20089;-35
2023/05/08 08:48:46;;;;;;;77.90;30.23;;;17.00;99.90;;;;;;5092687;28;20510;-36
2023/05/08 08:51:23;;;;;;;77.75;31.25;;;17.10;99.90;;;;;;5092657;28;20050;-36
2023/05/08 08:53:54;;;;;;;99.95;37.40;;;17.10;99.90;;;;;;5092684;28;20024;-36
2023/05/08 08:56:22;;;;;;;91.43;34.53;;;17.10;99.90;;;;;;5092925;28;20329;-40
2023/05/08 08:58:54;;;;;;;85.22;34.53;;;17.10;99.90;;;;;;5092511;28;20020;-34
2023/05/08 09:01:22;;;;;;;102.60;37.25;;;17.10;99.90;;;;;;5092342;28;20399;-39
2023/05/08 09:03:48;;;;;;;91.00;39.00;;;17.00;99.90;;;;;;5092680;28;20103;-37
2023/05/08 09:06:14;;;;;;;92.50;35.97;;;17.10;99.90;;;;;;5092439;28;20059;-37
2023/05/08 09:08:40;;;;;;;99.00;38.25;;;17.10;99.90;;;;;;5096466;28;20081;-39
2023/05/08 09:11:06;;;;;;;102.72;40.55;;;17.20;99.90;;;;;;5096111;28;20077;-37
2023/05/08 09:13:32;;;;;;;96.07;36.97;;;17.20;99.90;;;;;;5096599;28;20028;-36
2023/05/08 09:15:58;;;;;;;102.57;38.60;;;17.20;99.90;;;;;;5096162;28;20020;-40
2023/05/08 09:18:24;;;;;;;86.88;35.83;;;17.20;99.90;;;;;;5094906;28;20024;-34
2023/05/08 09:20:50;;;;;;;89.63;36.20;;;17.30;99.90;;;;;;5096171;28;20468;-37
2023/05/08 09:23:16;;;;;;;89.43;35.35;;;17.40;99.90;;;;;;5096298;28;20480;-37
2023/05/08 09:25:43;;;;;;;88.28;35.65;;;17.40;99.90;;;;;;5096389;28;20529;-38
2023/05/08 09:28:23;;;;;;;95.90;36.60;;;17.30;99.90;;;;;;5096104;28;20052;-36
2023/05/08 09:30:54;;;;;;;76.32;31.77;;;17.20;99.90;;;;;;5095911;28;20774;-38
2023/05/08 09:33:21;;;;;;;83.72;34.22;;;17.20;99.90;;;;;;5095923;28;20031;-40
2023/05/08 09:35:47;;;;;;;;;;;17.20;99.90;;;;;;5096329;28;20032;-37
2023/05/08 09:38:37;;;;;;;81.82;34.40;;;17.30;99.90;;;;;;5095770;28;19915;-38
2023/05/08 09:41:15;;;;;;;94.53;36.38;;;17.30;99.90;;;;;;5096027;28;20350;-36
2023/05/08 09:43:42;;;;;;;87.38;35.03;;;17.30;99.90;;;;;;5094844;28;20020;-36
2023/05/08 09:46:21;;;;;;;86.60;36.40;;;17.30;99.90;;;;;;5095720;28;20095;-39
2023/05/08 09:48:47;;;;;;;89.63;36.25;;;17.30;99.90;;;;;;5095609;28;20052;-40
2023/05/08 09:51:13;;;;;;;85.80;34.90;;;17.40;99.90;;;;;;5094191;28;20401;-36
2023/05/08 09:53:39;;;;;;;86.10;35.83;;;17.60;99.90;;;;;;5095497;28;20035;-35
2023/05/08 09:56:05;;;;;;;93.90;34.67;;;17.70;99.90;;;;;;5095508;28;20031;-36
2023/05/08 09:58:41;;;;;;;91.57;36.15;;;17.80;99.90;;;;;;5095391;28;20031;-37
2023/05/08 10:01:25;;;;;;;90.18;37.60;;;18.00;99.90;;;;;;5095319;28;20043;-38
2023/05/08 10:03:51;;;;;;;82.40;34.80;;;18.00;99.90;;;;;;5095687;28;20496;-37
2023/05/08 10:06:17;;;;;;;81.47;31.73;;;18.10;99.90;;;;;;5095291;28;20018;-37
2023/05/08 10:08:44;;;;;;;85.10;33.83;;;18.20;99.90;;;;;;5095229;28;20388;-40
2023/05/08 10:11:15;;;;;;;77.97;34.40;;;18.50;99.90;;;;;;5095087;28;20540;-37
2023/05/08 10:13:41;;;;;;;84.35;35.05;;;18.60;99.90;;;;;;5095368;28;20273;-38
2023/05/08 10:16:15;;;;;;;75.80;31.30;;;18.60;99.90;;;;;;5095107;28;20499;-38
2023/05/08 10:18:48;;;;;;;72.10;31.92;;;18.60;99.90;;;;;;5094454;28;20477;-41
2023/05/08 10:21:15;;;;;;;83.38;33.90;;;18.60;99.90;;;;;;5095028;28;20025;-36
2023/05/08 10:23:42;;;;;;;73.88;30.35;;;18.70;99.90;;;;;;5094978;28;20031;-41
2023/05/08 10:26:13;;;;;;;69.50;31.73;;;18.80;99.90;;;;;;5095146;28;20020;-38
2023/05/08 10:28:53;;;;;;;70.75;32.60;;;18.70;99.90;;;;;;5094748;28;20089;-40
2023/05/08 10:31:23;;;;;;;73.03;32.72;;;18.70;99.90;;;;;;5094803;28;20439;-40
2023/05/08 10:33:50;;;;;;;73.32;32.25;;;18.70;99.90;;;;;;5094795;28;20069;-39
2023/05/08 10:36:16;;;;;;;72.15;32.92;;;18.80;99.90;;;;;;5094677;28;20036;-35
2023/05/08 10:38:42;;;;;;;70.25;32.15;;;18.90;99.90;;;;;;5094559;28;20047;-36
2023/05/08 10:41:09;;;;;;;82.70;34.13;;;18.90;99.90;;;;;;5094613;28;20508;-41
2023/05/08 10:43:39;;;;;;;81.22;35.67;;;18.80;99.90;;;;;;5094520;28;20020;-39
2023/05/08 10:46:14;;;;;;;68.80;32.58;;;18.70;99.90;;;;;;5094594;28;20554;-37
2023/05/08 10:49:06;;;;;;;74.80;33.05;;;18.50;99.90;;;;;;5094781;28;20575;-37
2023/05/08 10:51:43;;;;;;;79.57;33.53;;;18.60;99.90;;;;;;5094327;28;20472;-37
2023/05/08 10:54:39;;;;;;;69.63;32.28;;;18.60;99.90;;;;;;5094411;28;20059;-36
2023/05/08 10:57:11;;;;;;;74.63;31.57;;;18.80;99.90;;;;;;5088561;28;20462;-36
2023/05/08 10:59:43;;;;;;;79.78;33.38;;;18.80;99.90;;;;;;5094268;28;20782;-39
2023/05/08 11:02:09;;;;;;;75.18;33.33;;;18.90;99.90;;;;;;5094193;28;20020;-35
2023/05/08 11:04:35;;;;;;;75.22;33.42;;;18.90;99.90;;;;;;5094171;28;20025;-40
2023/05/08 11:07:02;;;;;;;73.47;34.17;;;18.80;99.90;;;;;;5094370;28;20013;-40
2023/05/08 11:09:41;;;;;;;68.20;29.92;;;18.70;99.90;;;;;;5094045;28;20384;-40
2023/05/08 11:12:18;;;;;;;68.55;31.75;;;18.70;99.90;;;;;;5093839;28;20020;-43
2023/05/08 11:14:54;;;;;;;76.27;30.23;;;18.70;99.90;;;;;;5093989;28;20374;-36
2023/05/08 11:17:24;;;;;;;81.25;33.15;;;18.80;99.90;;;;;;5092707;28;20028;-35
2023/05/08 11:20:02;;;;;;;74.15;32.70;;;19.00;99.90;;;;;;5093820;28;20058;-48
2023/05/08 11:22:32;;;;;;;82.90;34.03;;;19.20;99.90;;;;;;5093822;28;20031;-39
2023/05/08 11:25:02;;;;;;;74.72;32.58;;;19.60;99.90;;;;;;5093732;28;20316;-43
2023/05/08 11:28:05;;;;;;;73.25;31.85;;;19.90;99.90;;;;;;5093985;28;20483;-36
2023/05/08 11:30:31;;;;;;;61.85;27.67;;;20.30;99.90;;;;;;5093555;28;20015;-38
2023/05/08 11:33:02;;;;;;;51.97;25.77;;;20.40;99.90;;;;;;5093685;28;20073;-32
2023/05/08 11:35:51;;;;;;;55.78;26.40;;;20.50;99.90;;;;;;5093636;28;20056;-37
2023/05/08 11:38:26;;;;;;;48.47;25.02;;;20.50;99.90;;;;;;5093568;28;20443;-37
2023/05/08 11:40:59;;;;;;;54.08;26.27;;;20.50;99.90;;;;;;5093431;28;20095;-37
2023/05/08 11:43:26;;;;;;;56.65;26.20;;;20.60;99.90;;;;;;5093466;28;20476;-32
2023/05/08 11:45:53;;;;;;;59.72;27.08;;;20.50;99.90;;;;;;5093680;28;20048;-38
2023/05/08 11:48:19;;;;;;;54.35;26.35;;;20.40;99.90;;;;;;5093627;28;20024;-42
2023/05/08 11:50:45;;;;;;;51.05;23.20;;;20.30;99.90;;;;;;5093320;28;20499;-37
2023/05/08 11:53:12;;;;;;;49.83;22.40;;;20.10;99.90;;;;;;5093533;28;20491;-35
2023/05/08 11:55:38;;;;;;;51.75;24.95;;;20.20;99.90;;;;;;5093282;28;20482;-40
2023/05/08 11:58:14;;;;;;;47.15;21.50;;;20.40;99.90;;;;;;5093239;28;20032;-35
2023/05/08 12:00:44;;;;;;;;;;;20.50;99.90;;;;;;5093529;28;20089;-38
2023/05/08 12:03:21;;;;;;;43.42;20.60;;;20.70;99.90;;;;;;5093197;28;20330;-40
2023/05/08 12:05:48;;;;;;;47.03;22.25;;;20.80;99.90;;;;;;5093183;28;20548;-39
2023/05/08 12:08:15;;;;;;;49.63;21.40;;;20.80;99.90;;;;;;5093406;28;20059;-36
2023/05/08 12:10:52;;;;;;;46.47;21.38;;;20.80;99.90;;;;;;5092996;28;20028;-36
2023/05/08 12:13:19;;;;;;;;;;;21.00;99.90;;;;;;5093468;28;20036;-32
2023/05/08 12:15:47;;;;;;;46.88;20.48;;;21.10;99.90;;;;;;5093005;28;19942;-37
2023/05/08 12:18:14;;;;;;;44.53;20.42;;;21.20;99.90;;;;;;5093102;28;20115;-41
2023/05/08 12:20:40;;;;;;;44.00;20.45;;;21.30;99.90;;;;;;5092871;28;20024;-39
2023/05/08 12:23:05;;;;;;;47.60;21.15;;;21.30;99.90;;;;;;5092873;28;20028;-36
2023/05/08 12:25:31;;;;;;;43.60;20.02;;;21.30;99.90;;;;;;5093112;28;20020;-36
2023/05/08 12:27:59;;;;;;;41.72;21.33;;;21.20;99.90;;;;;;5092860;28;20118;-34
2023/05/08 12:30:24;;;;;;;;;;;21.10;99.90;;;;;;5093533;28;20032;-36
2023/05/08 12:32:51;;;;;;;45.10;20.13;;;21.00;99.90;;;;;;5092804;28;19908;-35
2023/05/08 12:35:17;;;;;;;44.05;20.55;;;21.00;99.90;;;;;;5092835;28;20027;-34
2023/05/08 12:37:44;;;;;;;45.80;20.92;;;21.10;99.90;;;;;;5091308;28;20028;-34
2023/05/08 12:40:27;;;;;;;47.33;21.05;;;21.30;99.90;;;;;;5092761;28;20493;-36
2023/05/08 12:42:53;;;;;;;42.15;19.95;;;21.60;99.90;;;;;;5095711;28;20047;-35
2023/05/08 12:45:32;;;;;;;43.70;19.85;;;21.80;99.90;;;;;;5096782;28;20028;-35
2023/05/08 12:48:03;;;;;;;41.85;18.27;;;22.00;99.90;;;;;;5096727;28;20073;-35